Time;durP1;ratioP1;P1;durP2;ratioP2;P2;SDS_P1;SDS_P2;PMS_P1;PMS_P2;Temp;Humidity;BMP_temperature;BMP_pressure;BME280_temperature;BME280_humidity;BME280_pressure;Samples;Min_cycle;Max_cycle;Signal;HPM_P1;HPM_P2
2023/06/05 00:00:21;;;;;;;3.22;1.35;;;;;;;;;;5018583;28;20033;-85
2023/06/05 00:02:47;;;;;;;1.80;1.20;;;;;;;;;;5002532;28;20029;-84
2023/06/05 00:05:13;;;;;;;2.20;1.42;;;;;;;;;;5018931;28;20021;-84
2023/06/05 00:07:38;;;;;;;1.20;1.10;;;;;;;;;;5018757;28;20439;-84
2023/06/05 00:10:08;;;;;;;1.60;1.20;;;;;;;;;;5002246;28;20572;-83
2023/06/05 00:12:34;;;;;;;2.13;1.30;;;;;;;;;;5018813;28;20034;-84
2023/06/05 00:15:01;;;;;;;1.10;1.00;;;;;;;;;;5018934;28;20017;-83
2023/06/05 00:17:27;;;;;;;2.42;1.35;;;;;;;;;;5019256;28;20228;-83
2023/06/05 00:19:52;;;;;;;1.75;1.38;;;;;;;;;;5019024;28;20087;-83
2023/06/05 00:22:18;;;;;;;5.63;1.40;;;;;;;;;;5037608;28;20029;-82
2023/06/05 00:24:43;;;;;;;3.40;1.77;;;;;;;;;;5036838;28;20459;-83
2023/06/05 00:27:08;;;;;;;1.42;1.20;;;;;;;;;;5001133;28;20057;-82
2023/06/05 00:29:34;;;;;;;1.92;1.42;;;;;;;;;;5036549;28;20033;-83
2023/06/05 00:31:59;;;;;;;1.35;1.10;;;;;;;;;;5018596;28;20396;-83
2023/06/05 00:34:25;;;;;;;2.50;1.38;;;;;;;;;;5036660;28;20040;-83
2023/06/05 00:36:50;;;;;;;2.53;1.20;;;;;;;;;;5020427;28;20046;-83
2023/06/05 00:39:18;;;;;;;2.25;1.45;;;;;;;;;;5037369;28;20029;-83
2023/06/05 00:41:45;;;;;;;1.42;1.20;;;;;;;;;;5020351;28;20049;-83
2023/06/05 00:44:10;;;;;;;1.38;1.27;;;;;;;;;;5020680;28;20030;-84
2023/06/05 00:46:36;;;;;;;1.58;1.30;;;;;;;;;;5017512;28;20042;-83
2023/06/05 00:49:01;;;;;;;3.05;1.38;;;;;;;;;;4982227;28;20061;-84
2023/06/05 00:51:27;;;;;;;1.52;1.27;;;;;;;;;;4998992;28;20473;-84
2023/06/05 00:53:52;;;;;;;3.15;1.50;;;;;;;;;;4967259;28;20385;-84
2023/06/05 00:56:20;;;;;;;1.30;1.20;;;;;;;;;;4981867;28;20029;-85
2023/06/05 00:58:47;;;;;;;1.55;1.45;;;;;;;;;;4998131;28;20026;-85
2023/06/05 01:01:12;;;;;;;1.48;1.38;;;;;;;;;;4981998;28;20101;-85
2023/06/05 01:03:39;;;;;;;1.75;1.45;;;;;;;;;;4998079;28;20085;-85
2023/06/05 01:06:05;;;;;;;2.10;1.20;;;;;;;;;;4982180;28;20022;-85
2023/06/05 01:08:41;;;;;;;1.77;1.42;;;;;;;;;;4987223;28;20109;-84
2023/06/05 01:11:38;;;;;;;1.83;1.23;;;;;;;;;;4986782;28;20036;-83
2023/06/05 01:14:15;;;;;;;2.08;1.10;;;;;;;;;;4984488;28;20076;-84
2023/06/05 01:16:42;;;;;;;2.97;1.63;;;;;;;;;;5000910;28;20117;-83
2023/06/05 01:19:10;;;;;;;2.00;1.52;;;;;;;;;;4983560;28;20056;-84
2023/06/05 01:21:35;;;;;;;3.15;1.60;;;;;;;;;;4983751;28;20469;-85
2023/06/05 01:24:01;;;;;;;1.40;1.30;;;;;;;;;;5016346;28;20041;-85
2023/06/05 01:27:02;;;;;;;1.40;1.30;;;;;;;;;;5020593;28;20030;-84
2023/06/05 01:30:06;;;;;;;4.00;1.95;;;;;;;;;;4983980;28;20425;-85
2023/06/05 01:32:44;;;;;;;1.65;1.15;;;;;;;;;;5014635;28;20057;-86
2023/06/05 01:35:19;;;;;;;2.90;1.70;;;;;;;;;;5000395;28;20409;-85
2023/06/05 01:37:48;;;;;;;1.95;1.30;;;;;;;;;;4968268;28;20084;-85
2023/06/05 01:40:15;;;;;;;1.52;1.30;;;;;;;;;;5015438;28;20109;-86
2023/06/05 01:42:42;;;;;;;2.70;1.40;;;;;;;;;;4982408;28;20040;-85
2023/06/05 01:45:09;;;;;;;1.40;1.30;;;;;;;;;;4998281;28;20105;-85
2023/06/05 01:47:35;;;;;;;1.50;1.30;;;;;;;;;;5011165;28;20098;-84
2023/06/05 01:50:01;;;;;;;1.45;1.13;;;;;;;;;;5001008;28;20092;-84
2023/06/05 01:52:26;;;;;;;1.30;1.20;;;;;;;;;;5017904;28;20033;-84
2023/06/05 01:54:53;;;;;;;2.40;1.20;;;;;;;;;;5017789;28;20033;-84
2023/06/05 01:57:18;;;;;;;1.75;1.20;;;;;;;;;;5017225;28;20032;-84
2023/06/05 01:59:45;;;;;;;1.48;1.38;;;;;;;;;;5018715;28;20025;-84
2023/06/05 02:02:11;;;;;;;3.28;1.45;;;;;;;;;;5021020;28;20040;-84
2023/06/05 02:04:37;;;;;;;2.47;1.40;;;;;;;;;;5001249;28;20385;-83
2023/06/05 02:07:05;;;;;;;2.40;1.50;;;;;;;;;;5033982;28;20446;-83
2023/06/05 02:09:33;;;;;;;3.80;1.33;;;;;;;;;;5017049;28;20026;-83
2023/06/05 02:12:03;;;;;;;1.75;1.42;;;;;;;;;;5017284;28;20495;-83
2023/06/05 02:14:35;;;;;;;1.70;1.60;;;;;;;;;;5017175;28;20025;-83
2023/06/05 02:17:02;;;;;;;1.95;1.40;;;;;;;;;;5034070;28;20025;-83
2023/06/05 02:19:27;;;;;;;1.38;1.20;;;;;;;;;;5016292;28;20091;-82
2023/06/05 02:21:54;;;;;;;1.70;1.20;;;;;;;;;;5016028;28;20029;-83
2023/06/05 02:24:19;;;;;;;1.30;1.20;;;;;;;;;;5034205;28;20047;-83
2023/06/05 02:26:45;;;;;;;1.55;1.35;;;;;;;;;;4999589;28;20116;-83
2023/06/05 02:29:10;;;;;;;2.10;1.30;;;;;;;;;;4999896;28;20033;-83
2023/06/05 02:31:36;;;;;;;1.98;1.50;;;;;;;;;;5033587;28;20036;-83
2023/06/05 02:34:02;;;;;;;1.90;1.50;;;;;;;;;;5016188;28;20026;-84
2023/06/05 02:36:32;;;;;;;2.22;1.48;;;;;;;;;;5033674;28;20033;-84
2023/06/05 02:39:01;;;;;;;1.40;1.20;;;;;;;;;;5016620;28;20034;-84
2023/06/05 02:41:27;;;;;;;2.13;1.40;;;;;;;;;;5033476;28;20551;-84
2023/06/05 02:43:54;;;;;;;1.40;1.30;;;;;;;;;;5033817;28;20037;-84
2023/06/05 02:46:21;;;;;;;1.52;1.40;;;;;;;;;;5033720;28;20033;-84
2023/06/05 02:48:46;;;;;;;1.40;1.30;;;;;;;;;;4999471;28;20051;-84
2023/06/05 02:51:12;;;;;;;2.35;1.77;;;;;;;;;;4982829;28;20039;-84
2023/06/05 02:53:37;;;;;;;2.28;1.42;;;;;;;;;;4999167;28;20505;-83
2023/06/05 02:56:04;;;;;;;2.03;1.40;;;;;;;;;;4999220;28;20085;-83
2023/06/05 02:58:29;;;;;;;1.67;1.58;;;;;;;;;;4999488;28;20033;-83
2023/06/05 03:00:55;;;;;;;1.63;1.30;;;;;;;;;;5015884;28;20029;-83
2023/06/05 03:03:25;;;;;;;3.50;1.60;;;;;;;;;;5015686;28;20029;-83
2023/06/05 03:05:52;;;;;;;1.83;1.30;;;;;;;;;;4999418;28;20479;-83
2023/06/05 03:08:17;;;;;;;1.33;1.20;;;;;;;;;;5017760;28;20026;-84
2023/06/05 03:10:43;;;;;;;2.67;1.30;;;;;;;;;;4985464;28;20040;-83
2023/06/05 03:13:08;;;;;;;3.13;1.20;;;;;;;;;;5016775;28;20428;-83
2023/06/05 03:15:34;;;;;;;1.55;1.40;;;;;;;;;;5017015;28;20104;-83
2023/06/05 03:18:00;;;;;;;1.42;1.33;;;;;;;;;;4999910;28;20029;-83
2023/06/05 03:20:25;;;;;;;1.35;1.27;;;;;;;;;;5015706;28;20026;-83
2023/06/05 03:22:51;;;;;;;1.52;1.42;;;;;;;;;;5033316;28;20113;-82
2023/06/05 03:25:17;;;;;;;1.60;1.50;;;;;;;;;;5017242;28;20048;-84
2023/06/05 03:27:42;;;;;;;3.05;1.40;;;;;;;;;;5017484;28;20125;-83
2023/06/05 03:30:08;;;;;;;1.48;1.38;;;;;;;;;;5016256;28;20396;-84
2023/06/05 03:32:34;;;;;;;1.70;1.50;;;;;;;;;;5035082;28;20036;-83
2023/06/05 03:34:59;;;;;;;1.77;1.25;;;;;;;;;;5001838;28;20124;-83
2023/06/05 03:37:25;;;;;;;1.92;1.40;;;;;;;;;;5015131;28;20057;-83
2023/06/05 03:39:50;;;;;;;1.58;1.30;;;;;;;;;;4998818;28;20459;-84
2023/06/05 03:42:16;;;;;;;1.30;1.20;;;;;;;;;;5014930;28;20452;-83
2023/06/05 03:44:41;;;;;;;1.50;1.30;;;;;;;;;;5015289;28;20036;-83
2023/06/05 03:47:07;;;;;;;2.17;1.65;;;;;;;;;;5032841;28;20046;-83
2023/06/05 03:49:33;;;;;;;1.45;1.33;;;;;;;;;;5015552;28;20034;-83
2023/06/05 03:52:03;;;;;;;2.70;1.40;;;;;;;;;;5015820;28;20052;-85
2023/06/05 03:54:32;;;;;;;1.50;1.40;;;;;;;;;;5016578;28;20032;-85
2023/06/05 03:56:58;;;;;;;1.70;1.40;;;;;;;;;;4999089;28;20408;-85
2023/06/05 03:59:25;;;;;;;1.88;1.40;;;;;;;;;;4998865;28;20025;-86
2023/06/05 04:01:51;;;;;;;1.83;1.35;;;;;;;;;;5017429;28;20056;-85
2023/06/05 04:04:16;;;;;;;1.73;1.30;;;;;;;;;;5038587;28;20025;-86
2023/06/05 04:06:43;;;;;;;1.55;1.42;;;;;;;;;;5020195;28;20464;-84
2023/06/05 04:09:10;;;;;;;1.55;1.45;;;;;;;;;;5004726;28;20049;-82
2023/06/05 04:11:39;;;;;;;3.08;1.30;;;;;;;;;;5021386;28;20464;-82
2023/06/05 04:14:05;;;;;;;1.52;1.42;;;;;;;;;;5022352;28;20400;-82
2023/06/05 04:16:31;;;;;;;1.55;1.40;;;;;;;;;;5037291;28;20036;-79
2023/06/05 04:18:56;;;;;;;3.03;1.77;;;;;;;;;;5019382;28;20037;-80
2023/06/05 04:21:21;;;;;;;12.50;3.80;;;;;;;;;;5019110;28;20030;-80
2023/06/05 04:23:47;;;;;;;6.10;2.75;;;;;;;;;;5018545;28;20044;-81
2023/06/05 04:26:15;;;;;;;8.60;3.20;;;;;;;;;;4986318;28;20059;-80
2023/06/05 04:28:42;;;;;;;8.93;3.20;;;;;;;;;;5018955;28;20049;-81
2023/06/05 04:31:07;;;;;;;8.82;3.38;;;;;;;;;;5018337;28;20064;-80
2023/06/05 04:33:32;;;;;;;7.60;3.20;;;;;;;;;;5018364;28;20381;-78
2023/06/05 04:35:58;;;;;;;9.65;3.35;;;;;;;;;;5036182;28;20030;-79
2023/06/05 04:38:23;;;;;;;9.38;3.53;;;;;;;;;;5002770;28;20029;-81
2023/06/05 04:40:50;;;;;;;13.13;4.18;;;;;;;;;;5036425;28;20041;-80
2023/06/05 04:43:15;;;;;;;11.25;3.63;;;;;;;;;;4986425;28;20504;-80
2023/06/05 04:45:41;;;;;;;14.20;4.65;;;;;;;;;;5003031;28;20116;-79
2023/06/05 04:48:07;;;;;;;14.13;4.53;;;;;;;;;;5018901;28;20054;-79
2023/06/05 04:50:33;;;;;;;14.50;5.10;;;;;;;;;;4985417;28;20377;-80
2023/06/05 04:52:59;;;;;;;14.75;4.55;;;;;;;;;;5035620;28;20037;-79
2023/06/05 04:55:24;;;;;;;9.32;4.38;;;;;;;;;;5018285;28;20033;-80
2023/06/05 04:57:51;;;;;;;14.05;4.13;;;;;;;;;;5001901;28;20039;-82
2023/06/05 05:00:16;;;;;;;13.68;4.18;;;;;;;;;;5019423;28;20052;-82
2023/06/05 05:02:42;;;;;;;17.70;5.75;;;;;;;;;;5017894;28;20071;-82
2023/06/05 05:05:08;;;;;;;21.90;6.63;;;;;;;;;;5018718;28;20087;-82
2023/06/05 05:07:35;;;;;;;22.48;7.70;;;;;;;;;;5035470;28;20428;-82
2023/06/05 05:10:01;;;;;;;31.35;7.93;;;;;;;;;;5018603;28;20018;-82
2023/06/05 05:12:26;;;;;;;22.67;7.80;;;;;;;;;;5018087;28;20033;-84
2023/06/05 05:14:51;;;;;;;34.25;8.32;;;;;;;;;;5034541;28;20083;-83
2023/06/05 05:17:19;;;;;;;24.33;7.20;;;;;;;;;;4985108;28;20033;-83
2023/06/05 05:19:44;;;;;;;19.73;6.90;;;;;;;;;;5017865;28;20029;-84
2023/06/05 05:22:10;;;;;;;19.55;6.13;;;;;;;;;;5001251;28;20365;-83
2023/06/05 05:24:39;;;;;;;19.08;6.30;;;;;;;;;;5001185;28;20060;-84
2023/06/05 05:27:04;;;;;;;17.95;5.70;;;;;;;;;;5035275;28;20027;-83
2023/06/05 05:29:31;;;;;;;20.98;5.97;;;;;;;;;;5017417;28;20033;-83
2023/06/05 05:31:56;;;;;;;21.60;5.38;;;;;;;;;;5001082;28;20033;-83
2023/06/05 05:34:22;;;;;;;16.27;4.53;;;;;;;;;;5001255;28;20044;-84
2023/06/05 05:36:47;;;;;;;11.20;4.25;;;;;;;;;;5000963;28;20025;-84
2023/06/05 05:39:13;;;;;;;13.10;4.10;;;;;;;;;;5017130;28;20079;-83
2023/06/05 05:41:38;;;;;;;10.13;3.70;;;;;;;;;;5035014;28;20472;-83
2023/06/05 05:44:03;;;;;;;8.88;3.85;;;;;;;;;;5017184;28;20116;-83
2023/06/05 05:46:29;;;;;;;11.70;3.70;;;;;;;;;;5034800;28;20491;-83
2023/06/05 05:48:55;;;;;;;10.23;3.47;;;;;;;;;;5034749;28;20435;-84
2023/06/05 05:51:21;;;;;;;8.45;3.58;;;;;;;;;;5016814;28;20476;-83
2023/06/05 05:53:46;;;;;;;13.60;4.60;;;;;;;;;;5000647;28;20030;-83
2023/06/05 05:56:12;;;;;;;7.03;3.67;;;;;;;;;;5034310;28;20045;-83
2023/06/05 05:58:37;;;;;;;10.55;3.25;;;;;;;;;;5035679;28;20072;-83
2023/06/05 06:01:02;;;;;;;9.50;3.25;;;;;;;;;;5035075;28;20033;-84
2023/06/05 06:03:28;;;;;;;9.73;3.17;;;;;;;;;;5000492;28;20037;-83
2023/06/05 06:05:54;;;;;;;6.07;2.78;;;;;;;;;;4984442;28;20026;-83
2023/06/05 06:08:20;;;;;;;6.32;2.90;;;;;;;;;;5000454;28;20025;-83
2023/06/05 06:10:46;;;;;;;4.40;2.50;;;;;;;;;;5017983;28;20035;-83
2023/06/05 06:13:12;;;;;;;4.78;2.42;;;;;;;;;;5034724;28;20400;-84
2023/06/05 06:15:38;;;;;;;4.50;2.45;;;;;;;;;;5017494;28;20037;-83
2023/06/05 06:18:07;;;;;;;5.50;2.55;;;;;;;;;;5000488;28;20035;-84
2023/06/05 06:20:33;;;;;;;4.25;2.53;;;;;;;;;;5034442;28;20076;-84
2023/06/05 06:22:59;;;;;;;6.25;2.38;;;;;;;;;;5016512;28;20423;-82
2023/06/05 06:25:28;;;;;;;5.07;2.10;;;;;;;;;;5015725;28;20052;-83
2023/06/05 06:27:58;;;;;;;6.03;2.33;;;;;;;;;;5017314;28;20029;-83
2023/06/05 06:30:24;;;;;;;3.95;1.90;;;;;;;;;;4999934;28;20025;-82
2023/06/05 06:32:50;;;;;;;5.50;2.08;;;;;;;;;;5016466;28;20163;-83
2023/06/05 06:35:15;;;;;;;2.15;1.77;;;;;;;;;;5000468;28;20049;-83
2023/06/05 06:37:41;;;;;;;3.35;2.05;;;;;;;;;;4999918;28;20101;-83
2023/06/05 06:40:10;;;;;;;2.70;1.77;;;;;;;;;;4999850;28;20245;-83
2023/06/05 06:42:37;;;;;;;5.10;1.88;;;;;;;;;;5016646;28;20021;-83
2023/06/05 06:45:04;;;;;;;3.10;1.75;;;;;;;;;;5016488;28;20017;-83
2023/06/05 06:47:30;;;;;;;2.47;1.60;;;;;;;;;;4999384;28;20054;-82
2023/06/05 06:49:56;;;;;;;2.78;1.67;;;;;;;;;;5033581;28;20035;-83
2023/06/05 06:52:22;;;;;;;2.20;1.60;;;;;;;;;;5016096;28;20033;-82
2023/06/05 06:54:48;;;;;;;3.92;1.60;;;;;;;;;;5015666;28;20116;-83
2023/06/05 06:57:13;;;;;;;2.40;1.30;;;;;;;;;;5015619;28;20460;-82
2023/06/05 06:59:41;;;;;;;3.00;1.52;;;;;;;;;;5016190;28;20033;-84
2023/06/05 07:02:13;;;;;;;3.38;1.42;;;;;;;;;;5016562;28;20044;-84
2023/06/05 07:04:40;;;;;;;2.10;1.52;;;;;;;;;;4999345;28;20032;-82
2023/06/05 07:07:09;;;;;;;2.55;1.58;;;;;;;;;;5033691;28;20045;-82
2023/06/05 07:09:34;;;;;;;3.13;1.73;;;;;;;;;;5020235;28;20068;-81
2023/06/05 07:12:04;;;;;;;2.45;1.60;;;;;;;;;;5034141;28;20045;-80
2023/06/05 07:14:31;;;;;;;2.75;1.60;;;;;;;;;;5017032;28;20029;-82
2023/06/05 07:16:58;;;;;;;2.20;1.35;;;;;;;;;;5016417;28;20022;-82
2023/06/05 07:19:25;;;;;;;3.63;1.42;;;;;;;;;;5015747;28;20388;-84
2023/06/05 07:21:50;;;;;;;2.38;1.60;;;;;;;;;;5016908;28;20032;-84
2023/06/05 07:24:18;;;;;;;4.30;1.70;;;;;;;;;;5015899;28;20029;-83
2023/06/05 07:26:44;;;;;;;4.15;1.50;;;;;;;;;;5033195;28;20067;-82
2023/06/05 07:29:10;;;;;;;6.75;1.60;;;;;;;;;;5033205;28;20018;-80
2023/06/05 07:31:36;;;;;;;6.15;1.80;;;;;;;;;;5015554;28;20391;-81
2023/06/05 07:34:02;;;;;;;10.70;1.65;;;;;;;;;;5034228;28;20025;-81
2023/06/05 07:36:28;;;;;;;6.40;1.40;;;;;;;;;;5035627;28;20041;-81
2023/06/05 07:38:53;;;;;;;9.35;1.80;;;;;;;;;;5003229;28;20029;-82
2023/06/05 07:41:19;;;;;;;3.08;1.65;;;;;;;;;;5036828;28;20080;-81
2023/06/05 07:43:45;;;;;;;3.10;1.55;;;;;;;;;;5019472;28;20064;-81
2023/06/05 07:46:10;;;;;;;8.48;2.08;;;;;;;;;;5003206;28;20021;-82
2023/06/05 07:48:35;;;;;;;2.97;1.67;;;;;;;;;;5002951;28;20053;-81
2023/06/05 07:51:01;;;;;;;4.22;1.70;;;;;;;;;;5037059;28;20053;-81
2023/06/05 07:53:26;;;;;;;3.70;1.60;;;;;;;;;;5019053;28;20053;-80
2023/06/05 07:55:52;;;;;;;2.47;1.60;;;;;;;;;;5036782;28;20033;-80
2023/06/05 07:58:18;;;;;;;3.25;1.63;;;;;;;;;;5003415;28;20487;-80
2023/06/05 08:00:47;;;;;;;4.30;1.98;;;;;;;;;;5019452;28;20472;-81
2023/06/05 08:03:23;;;;;;;4.95;1.60;;;;;;;;;;5020219;28;20078;-80
2023/06/05 08:05:49;;;;;;;2.45;1.83;;;;;;;;;;5020040;28;20040;-80
2023/06/05 08:08:15;;;;;;;3.72;1.60;;;;;;;;;;5019794;28;20025;-80
2023/06/05 08:10:41;;;;;;;6.25;1.70;;;;;;;;;;5002615;28;20025;-79
2023/06/05 08:13:08;;;;;;;9.13;2.00;;;;;;;;;;5037048;28;20049;-80
2023/06/05 08:15:34;;;;;;;6.75;2.00;;;;;;;;;;5018679;28;20041;-81
2023/06/05 08:18:03;;;;;;;10.48;1.67;;;;;;;;;;5038235;28;20390;-81
2023/06/05 08:20:29;;;;;;;2.53;1.70;;;;;;;;;;5018848;28;20033;-81
2023/06/05 08:22:57;;;;;;;7.95;1.80;;;;;;;;;;5018860;28;20480;-81
2023/06/05 08:25:26;;;;;;;9.98;1.70;;;;;;;;;;5036864;28;20021;-81
2023/06/05 08:27:51;;;;;;;2.88;1.50;;;;;;;;;;5021085;28;20060;-80
2023/06/05 08:30:17;;;;;;;5.18;1.83;;;;;;;;;;5019090;28;20064;-81
2023/06/05 08:32:43;;;;;;;4.10;1.80;;;;;;;;;;5002041;28;20041;-81
2023/06/05 08:35:09;;;;;;;4.38;1.80;;;;;;;;;;5019310;28;20045;-81
2023/06/05 08:37:35;;;;;;;5.32;1.67;;;;;;;;;;5018157;28;20067;-81
2023/06/05 08:40:06;;;;;;;5.60;2.17;;;;;;;;;;5018633;28;20026;-81
2023/06/05 08:42:32;;;;;;;7.18;1.80;;;;;;;;;;5019061;28;20032;-81
2023/06/05 08:44:57;;;;;;;4.25;1.90;;;;;;;;;;5018394;28;20396;-81
2023/06/05 08:47:28;;;;;;;5.28;2.00;;;;;;;;;;5017878;28;20199;-81
2023/06/05 08:49:55;;;;;;;4.57;1.77;;;;;;;;;;5001360;28;20053;-81
2023/06/05 08:52:25;;;;;;;3.55;1.73;;;;;;;;;;5036559;28;20044;-82
2023/06/05 08:54:51;;;;;;;3.72;1.88;;;;;;;;;;5017796;28;20032;-81
2023/06/05 08:57:17;;;;;;;3.08;1.92;;;;;;;;;;5018867;28;20579;-81
2023/06/05 08:59:43;;;;;;;3.53;1.63;;;;;;;;;;5001792;28;20112;-82
2023/06/05 09:02:11;;;;;;;1.90;1.73;;;;;;;;;;5036074;28;20117;-81
2023/06/05 09:04:38;;;;;;;3.35;1.90;;;;;;;;;;5035721;28;20048;-81
2023/06/05 09:07:04;;;;;;;3.50;1.65;;;;;;;;;;5001948;28;20026;-82
2023/06/05 09:09:31;;;;;;;3.05;1.90;;;;;;;;;;5017666;28;20572;-82
2023/06/05 09:12:07;;;;;;;4.35;2.10;;;;;;;;;;5017567;28;20099;-81
2023/06/05 09:14:33;;;;;;;4.18;1.77;;;;;;;;;;5001951;28;20040;-81
2023/06/05 09:17:00;;;;;;;2.25;1.65;;;;;;;;;;5017662;28;20026;-79
2023/06/05 09:19:39;;;;;;;3.97;1.70;;;;;;;;;;5002701;28;20025;-80
2023/06/05 09:22:09;;;;;;;5.90;1.65;;;;;;;;;;5037723;28;20044;-80
2023/06/05 09:24:35;;;;;;;3.25;1.70;;;;;;;;;;5017815;28;20067;-80
2023/06/05 09:27:06;;;;;;;6.70;2.15;;;;;;;;;;4982786;28;20030;-79
2023/06/05 09:29:37;;;;;;;3.35;2.10;;;;;;;;;;4998741;28;20077;-81
2023/06/05 09:32:07;;;;;;;2.80;1.88;;;;;;;;;;5015708;28;20060;-80
2023/06/05 09:34:35;;;;;;;2.15;1.70;;;;;;;;;;4998625;28;20021;-80
2023/06/05 09:37:03;;;;;;;4.10;1.80;;;;;;;;;;4982079;28;20128;-78
2023/06/05 09:39:29;;;;;;;3.70;1.80;;;;;;;;;;5015214;28;20051;-80
2023/06/05 09:41:56;;;;;;;5.20;1.90;;;;;;;;;;4981787;28;20398;-81
2023/06/05 09:44:22;;;;;;;7.30;2.80;;;;;;;;;;4981771;28;20469;-79
2023/06/05 09:46:51;;;;;;;11.93;3.63;;;;;;;;;;5015142;28;20026;-80
2023/06/05 09:49:17;;;;;;;12.32;3.85;;;;;;;;;;5016940;28;20033;-80
2023/06/05 09:51:43;;;;;;;13.05;4.22;;;;;;;;;;5017570;28;20373;-80
2023/06/05 09:54:10;;;;;;;12.00;3.58;;;;;;;;;;5017510;28;20396;-78
2023/06/05 09:56:36;;;;;;;14.40;4.13;;;;;;;;;;5000416;28;20029;-81
2023/06/05 09:59:03;;;;;;;17.42;4.03;;;;;;;;;;5017599;28;20037;-78
2023/06/05 10:01:29;;;;;;;19.35;4.38;;;;;;;;;;5035191;28;20452;-78
2023/06/05 10:04:01;;;;;;;13.85;5.47;;;;;;;;;;4997279;28;20072;-79
2023/06/05 10:06:28;;;;;;;15.63;4.40;;;;;;;;;;5000154;28;20383;-79
2023/06/05 10:08:55;;;;;;;11.63;4.18;;;;;;;;;;5000946;28;20032;-79
2023/06/05 10:11:22;;;;;;;12.18;3.95;;;;;;;;;;4997087;28;20489;-79
2023/06/05 10:13:51;;;;;;;12.32;3.58;;;;;;;;;;5015575;28;20037;-80
2023/06/05 10:16:17;;;;;;;8.23;3.50;;;;;;;;;;5016925;28;20495;-79
2023/06/05 10:18:48;;;;;;;10.18;3.67;;;;;;;;;;5016952;28;20094;-79
2023/06/05 10:21:18;;;;;;;9.45;3.60;;;;;;;;;;5013813;28;20070;-79
2023/06/05 10:23:53;;;;;;;19.52;3.58;;;;;;;;;;4997525;28;20030;-79
2023/06/05 10:26:53;;;;;;;11.38;3.10;;;;;;;;;;5009403;28;20023;-79
2023/06/05 10:29:28;;;;;;;8.88;2.83;;;;;;;;;;4996881;28;20036;-78
2023/06/05 10:32:00;;;;;;;10.73;3.15;;;;;;;;;;4996519;28;20026;-80
2023/06/05 10:34:36;;;;;;;6.88;2.78;;;;;;;;;;5014553;28;20065;-81
2023/06/05 10:37:22;;;;;;;3.72;2.40;;;;;;;;;;4980490;28;20473;-82
2023/06/05 10:39:49;;;;;;;4.32;2.40;;;;;;;;;;5006924;28;20109;-81
2023/06/05 10:42:28;;;;;;;18.08;4.53;;;;;;;;;;4996817;28;20389;-81
2023/06/05 10:44:55;;;;;;;16.35;4.63;;;;;;;;;;4996379;28;20452;-81
2023/06/05 10:47:35;;;;;;;11.57;4.20;;;;;;;;;;4993435;28;20060;-80
2023/06/05 10:50:19;;;;;;;16.27;4.20;;;;;;;;;;4994577;28;20026;-82
2023/06/05 10:52:46;;;;;;;15.43;4.22;;;;;;;;;;4995058;28;20026;-83
2023/06/05 10:55:15;;;;;;;12.15;4.40;;;;;;;;;;4976816;28;20101;-79
2023/06/05 10:58:02;;;;;;;12.70;3.72;;;;;;;;;;4977805;28;20033;-79
2023/06/05 11:00:31;;;;;;;9.52;3.60;;;;;;;;;;4994446;28;20496;-82
2023/06/05 11:02:57;;;;;;;9.05;2.97;;;;;;;;;;4976861;28;20393;-80
2023/06/05 11:05:22;;;;;;;8.10;3.28;;;;;;;;;;4961430;28;20041;-81
2023/06/05 11:08:10;;;;;;;13.38;3.25;;;;;;;;;;4976859;28;20072;-82
2023/06/05 11:10:36;;;;;;;14.00;3.33;;;;;;;;;;4976638;28;20113;-82
2023/06/05 11:15:37;;;;;;;5.43;2.80;;;;;;;;;;5010554;23;20050;-82
2023/06/05 11:18:25;;;;;;;11.82;2.95;;;;;;;;;;4996238;28;20112;-82
2023/06/05 11:20:52;;;;;;;7.60;2.50;;;;;;;;;;4997104;28;20034;-82
2023/06/05 11:23:17;;;;;;;5.47;2.70;;;;;;;;;;4979871;28;20412;-82
2023/06/05 11:25:43;;;;;;;6.57;2.83;;;;;;;;;;4997309;28;20113;-82
2023/06/05 11:28:09;;;;;;;10.13;2.72;;;;;;;;;;5013659;28;20037;-81
2023/06/05 11:30:45;;;;;;;8.45;2.55;;;;;;;;;;4996864;28;20081;-81
2023/06/05 11:33:15;;;;;;;7.80;2.30;;;;;;;;;;4979782;28;20088;-82
2023/06/05 11:35:45;;;;;;;6.28;2.38;;;;;;;;;;4996913;28;20026;-82
2023/06/05 11:38:16;;;;;;;5.20;2.17;;;;;;;;;;4979804;28;20396;-81
2023/06/05 11:40:43;;;;;;;7.00;2.00;;;;;;;;;;4996441;28;20034;-81
2023/06/05 11:43:10;;;;;;;6.60;2.20;;;;;;;;;;4996424;28;20033;-80
2023/06/05 11:45:37;;;;;;;7.35;2.38;;;;;;;;;;5013235;28;20034;-82
2023/06/05 11:48:13;;;;;;;10.48;2.05;;;;;;;;;;4979724;28;20065;-83
2023/06/05 11:50:56;;;;;;;5.72;2.30;;;;;;;;;;4995794;28;20092;-82
2023/06/05 11:53:22;;;;;;;5.57;2.22;;;;;;;;;;5013690;28;20026;-83
2023/06/05 11:58:28;;;;;;;6.60;2.08;;;;;;;;;;4996569;28;20028;-82
2023/06/05 12:01:25;;;;;;;3.15;1.77;;;;;;;;;;4995737;28;20104;-83
2023/06/05 12:04:03;;;;;;;5.80;2.00;;;;;;;;;;4981060;28;20054;-82
2023/06/05 12:06:29;;;;;;;3.47;1.80;;;;;;;;;;5013268;28;20376;-83
2023/06/05 12:09:07;;;;;;;5.72;2.10;;;;;;;;;;4996296;28;20130;-81
2023/06/05 12:11:33;;;;;;;2.28;1.70;;;;;;;;;;4971902;28;20426;-81
2023/06/05 12:13:58;;;;;;;5.43;2.00;;;;;;;;;;4975782;28;20055;-82
2023/06/05 12:16:42;;;;;;;2.88;1.83;;;;;;;;;;4979384;28;20548;-83
2023/06/05 12:19:12;;;;;;;5.28;1.63;;;;;;;;;;4995422;28;20033;-83
2023/06/05 12:21:37;;;;;;;2.08;1.75;;;;;;;;;;4979503;28;20034;-86
2023/06/05 12:24:04;;;;;;;2.17;1.60;;;;;;;;;;4996832;28;20056;-83
2023/06/05 12:26:37;;;;;;;3.25;1.73;;;;;;;;;;4999763;28;20386;-84
2023/06/05 12:29:06;;;;;;;3.22;1.65;;;;;;;;;;4982513;28;20061;-83
2023/06/05 12:31:35;;;;;;;2.00;1.40;;;;;;;;;;4999357;28;20036;-83
2023/06/05 12:34:02;;;;;;;1.83;1.38;;;;;;;;;;4999831;28;20049;-83
2023/06/05 12:36:28;;;;;;;2.17;1.48;;;;;;;;;;5016549;28;20160;-84
2023/06/05 12:38:54;;;;;;;2.05;1.50;;;;;;;;;;5016357;28;20029;-84
2023/06/05 12:41:20;;;;;;;2.55;1.63;;;;;;;;;;4998898;28;20433;-83
2023/06/05 12:43:45;;;;;;;3.45;1.60;;;;;;;;;;4998983;28;20028;-83
2023/06/05 12:46:11;;;;;;;2.28;1.40;;;;;;;;;;4998715;28;20026;-83
2023/06/05 12:48:38;;;;;;;2.53;1.65;;;;;;;;;;4982264;28;20034;-83
2023/06/05 12:51:03;;;;;;;2.95;1.70;;;;;;;;;;4998742;28;20021;-83
2023/06/05 12:53:29;;;;;;;3.53;1.50;;;;;;;;;;4982434;28;20381;-83
2023/06/05 12:55:54;;;;;;;4.15;1.45;;;;;;;;;;5015872;28;20030;-82
2023/06/05 12:58:19;;;;;;;2.15;1.55;;;;;;;;;;4982305;28;20033;-82
2023/06/05 13:00:45;;;;;;;3.03;1.70;;;;;;;;;;4998130;28;20037;-84
2023/06/05 13:03:10;;;;;;;1.50;1.40;;;;;;;;;;4982148;28;20084;-82
2023/06/05 13:05:36;;;;;;;2.63;1.42;;;;;;;;;;5015954;28;20029;-82
2023/06/05 13:08:01;;;;;;;2.20;1.40;;;;;;;;;;4998148;28;20041;-84
2023/06/05 13:10:27;;;;;;;2.97;1.60;;;;;;;;;;4981832;28;20026;-85
2023/06/05 13:12:52;;;;;;;3.17;1.83;;;;;;;;;;4981632;28;20033;-84
2023/06/05 13:15:17;;;;;;;1.98;1.48;;;;;;;;;;4981609;28;20058;-83
2023/06/05 13:17:43;;;;;;;3.00;1.33;;;;;;;;;;4998627;28;20042;-83
2023/06/05 13:20:12;;;;;;;2.75;1.40;;;;;;;;;;5016004;28;20026;-83
2023/06/05 13:22:38;;;;;;;2.28;1.27;;;;;;;;;;5015744;28;20030;-82
2023/06/05 13:25:06;;;;;;;1.80;1.38;;;;;;;;;;4998717;28;20037;-83
2023/06/05 13:27:32;;;;;;;2.88;1.40;;;;;;;;;;4998308;28;20034;-82
2023/06/05 13:29:57;;;;;;;1.85;1.27;;;;;;;;;;4998468;28;20029;-83
2023/06/05 13:32:23;;;;;;;2.38;1.50;;;;;;;;;;5014763;28;20083;-84
2023/06/05 13:34:48;;;;;;;7.80;1.85;;;;;;;;;;4981149;28;20033;-83
2023/06/05 13:37:14;;;;;;;2.60;1.52;;;;;;;;;;5016107;28;20030;-82
2023/06/05 13:39:39;;;;;;;3.35;1.45;;;;;;;;;;4997987;28;20045;-84
2023/06/05 13:42:05;;;;;;;1.38;1.27;;;;;;;;;;4997619;28;20030;-84
2023/06/05 13:44:30;;;;;;;7.10;1.45;;;;;;;;;;4981379;28;20373;-84
2023/06/05 13:46:57;;;;;;;2.25;1.40;;;;;;;;;;4997519;28;20030;-84
2023/06/05 13:49:22;;;;;;;2.50;1.35;;;;;;;;;;4997812;28;20140;-84
2023/06/05 13:51:48;;;;;;;2.85;1.30;;;;;;;;;;4998002;28;20029;-84
2023/06/05 13:54:13;;;;;;;2.17;1.40;;;;;;;;;;4981982;28;20477;-84
2023/06/05 13:56:38;;;;;;;2.28;1.45;;;;;;;;;;5015227;28;20400;-83
2023/06/05 13:59:04;;;;;;;3.05;1.35;;;;;;;;;;4997699;28;20397;-84
2023/06/05 14:01:30;;;;;;;1.58;1.35;;;;;;;;;;4980983;28;20160;-84
2023/06/05 14:03:55;;;;;;;2.70;1.33;;;;;;;;;;4997361;28;20036;-84
2023/06/05 14:06:20;;;;;;;1.60;1.30;;;;;;;;;;4997868;28;20030;-84
2023/06/05 14:08:46;;;;;;;1.60;1.40;;;;;;;;;;4997250;28;20062;-83
2023/06/05 14:11:12;;;;;;;2.20;1.58;;;;;;;;;;5014936;28;20026;-84
2023/06/05 14:13:38;;;;;;;3.17;1.42;;;;;;;;;;4978555;28;20336;-84
2023/06/05 14:16:04;;;;;;;4.13;1.50;;;;;;;;;;4977666;28;20120;-85
2023/06/05 14:18:30;;;;;;;1.83;1.48;;;;;;;;;;4977475;28;20029;-84
2023/06/05 14:20:56;;;;;;;1.50;1.40;;;;;;;;;;4995132;28;20038;-83
2023/06/05 14:23:23;;;;;;;2.70;1.50;;;;;;;;;;4995332;28;20487;-83
2023/06/05 14:25:49;;;;;;;3.17;1.35;;;;;;;;;;4964083;28;20072;-83
2023/06/05 14:28:14;;;;;;;1.83;1.38;;;;;;;;;;4979939;28;20030;-84
2023/06/05 14:30:40;;;;;;;2.25;1.40;;;;;;;;;;4997347;28;20030;-84
2023/06/05 14:33:05;;;;;;;2.45;1.48;;;;;;;;;;4997264;28;20158;-84
2023/06/05 14:35:32;;;;;;;1.88;1.45;;;;;;;;;;4996117;28;20386;-83
2023/06/05 14:37:57;;;;;;;4.38;1.48;;;;;;;;;;4961623;28;20394;-84
2023/06/05 14:40:23;;;;;;;2.40;1.83;;;;;;;;;;4961242;28;20032;-85
2023/06/05 14:42:49;;;;;;;3.55;1.40;;;;;;;;;;4977498;28;20026;-84
2023/06/05 14:45:15;;;;;;;1.73;1.45;;;;;;;;;;4978161;28;20069;-84
2023/06/05 14:47:40;;;;;;;5.20;1.48;;;;;;;;;;4994154;28;20026;-84